KCNI

Cherokee County Airport

Canton, Georgia, USA
METAR KCNI 231615Z AUTO 09005KT 10SM SCT019 SCT040 BKN048 22/17 A3044 RMK AO2
Observed Flight Rules
Feb-23 @ 16:15 UTC (18 minutes ago) Visual Flight Rules
Wind Visibility Clouds
90° at 5 knots 10 miles
  • Scattered at 1,900' AGL
  • Scattered at 4,000' AGL
  • Broken at 4,800' AGL
Temperatures Readings
Current 22°C / 72°F
Dewpoint 17°C / 63°F
Humidity 73%
Altimeter 30.44" Hg
Pressure 1031 hPa
Elevation 372
METAR KCNI 231615Z AUTO 09005KT 10SM SCT019 SCT040 BKN048 22/17 A3044 RMK AO2
Observed Flight Rules
Feb-23 @ 16:15 UTC
(18 minutes ago)
VFR
Wind Visibility
90° at 5 knots 10 miles
Clouds
  • Scattered at 1,900' AGL
  • Scattered at 4,000' AGL
  • Broken at 4,800' AGL
Temperature Dewpoint
22°C / 72°F 17°C / 63°F
Humidity Altimeter Pressure
73% 30.44" Hg 1031 hPa